GMAD/AGA METAR and TAF weather

Enter ICAO airport designator
Station Type Date Time Source
GMAD METAR 2020/01/24 15:30 UTC NOAA

GMAD 241530Z 26010KT 9999 SCT030 21/06 Q1018 NOSIG


Station Type Date Time Source
GMAD Decoded METAR 2020/01/24 15:30 UTC NOAA

Agadir Al Massira, Morocco (GMAD) 30-20N 009-24W 74M
Jan 24, 2020 - 10:30 AM EST / 2020.01.24 1530 UTC
Wind: from the W (260 degrees) at 12 MPH (10 KT):0
Visibility: greater than 7 mile(s):0
Sky conditions: partly cloudy
Temperature: 69 F (21 C)
Dew Point: 42 F (6 C)
Relative Humidity: 37%
Pressure (altimeter): 30.06 in. Hg (1018 hPa)
ob: GMAD 241530Z 26010KT 9999 SCT030 21/06 Q1018 NOSIG
cycle: 15

Station Type Date Time Source
GMAD TAF 2020/01/24 12:24 UTC NOAA

TAF TAF GMAD 241100Z 2412/2518 05007KT 9999 FEW030
BECMG 2416/2418 27012KT

Example: see airport list